Time;durP1;ratioP1;P1;durP2;ratioP2;P2;SDS_P1;SDS_P2;PMS_P1;PMS_P2;Temp;Humidity;BMP_temperature;BMP_pressure;BME280_temperature;BME280_humidity;BME280_pressure;Samples;Min_cycle;Max_cycle;Signal;HPM_P1;HPM_P2
2023/09/30 00:02:27;;;;;;;17.35;3.78;;;;;;;19.36;72.90;99826.63;4911220;29;20585;-79
2023/09/30 00:05:12;;;;;;;13.00;3.05;;;;;;;19.26;73.46;99825.38;4891059;29;20059;-79
2023/09/30 00:07:56;;;;;;;19.52;3.47;;;;;;;19.25;73.92;99815.75;4906918;29;21557;-80
2023/09/30 00:10:40;;;;;;;15.73;3.30;;;;;;;19.35;73.53;99820.47;4891848;29;20107;-79
2023/09/30 00:13:24;;;;;;;15.77;3.75;;;;;;;19.41;73.47;99822.22;4909727;29;20070;-78
2023/09/30 00:16:08;;;;;;;19.83;4.22;;;;;;;19.17;73.69;99807.34;4893004;29;20055;-78
2023/09/30 00:18:54;;;;;;;14.32;3.00;;;;;;;19.21;73.99;99808.47;4895572;29;20050;-78
2023/09/30 00:21:38;;;;;;;19.00;4.63;;;;;;;19.09;74.55;99805.84;4903366;29;20051;-78
2023/09/30 00:24:22;;;;;;;19.63;3.83;;;;;;;19.09;74.94;99813.81;4902910;29;20096;-78
2023/09/30 00:27:06;;;;;;;12.75;3.70;;;;;;;18.80;75.28;99793.19;4908628;29;20415;-79
2023/09/30 00:29:51;;;;;;;16.30;4.13;;;;;;;19.26;74.54;99825.38;4902252;29;20414;-78
2023/09/30 00:32:39;;;;;;;16.90;4.05;;;;;;;19.13;74.63;99812.31;4893650;29;20051;-78
2023/09/30 00:35:22;;;;;;;16.35;4.25;;;;;;;18.83;75.50;99813.19;4907845;29;20431;-80
2023/09/30 00:38:06;;;;;;;12.65;3.05;;;;;;;18.82;75.51;99798.25;4902765;29;20043;-80
2023/09/30 00:40:50;;;;;;;13.95;3.38;;;;;;;18.90;75.67;99827.19;4888650;29;20051;-81
2023/09/30 00:43:34;;;;;;;17.50;4.10;;;;;;;18.78;75.92;99834.34;4890970;29;20050;-79
2023/09/30 00:46:28;;;;;;;17.13;3.63;;;;;;;18.84;75.60;99836.06;4892460;29;20079;-79
2023/09/30 00:49:14;;;;;;;12.43;3.85;;;;;;;19.10;75.06;99834.06;4903152;29;20164;-78
2023/09/30 00:51:59;;;;;;;19.80;4.05;;;;;;;19.14;74.83;99835.22;4906200;29;20048;-80
2023/09/30 00:54:44;;;;;;;14.45;3.58;;;;;;;19.15;75.13;99839.50;4902643;29;20135;-80
2023/09/30 00:57:29;;;;;;;17.02;3.60;;;;;;;19.57;74.35;99846.53;4887495;29;20420;-80
2023/09/30 01:00:15;;;;;;;18.77;4.00;;;;;;;19.46;74.34;99836.69;4891294;29;20067;-79
2023/09/30 01:03:03;;;;;;;17.17;3.50;;;;;;;19.57;74.20;99827.06;4900967;29;20043;-78
2023/09/30 01:05:49;;;;;;;12.45;3.70;;;;;;;19.60;74.12;99827.41;4907262;29;20075;-80
2023/09/30 01:08:34;;;;;;;20.40;3.90;;;;;;;19.53;74.12;99822.22;4887256;29;20051;-80
2023/09/30 01:11:19;;;;;;;22.88;4.20;;;;;;;19.45;74.00;99814.56;4906629;29;20046;-81
2023/09/30 01:14:03;;;;;;;12.25;4.00;;;;;;;19.72;73.68;99814.06;4905546;29;20523;-79
2023/09/30 01:16:47;;;;;;;15.35;3.58;;;;;;;19.58;73.80;99828.69;4897881;29;20044;-79
2023/09/30 01:19:31;;;;;;;13.32;3.40;;;;;;;19.76;73.72;99831.19;4904486;29;20415;-81
2023/09/30 01:22:16;;;;;;;16.20;3.33;;;;;;;19.90;73.43;99831.72;4894256;29;20404;-81
2023/09/30 01:25:00;;;;;;;14.00;4.35;;;;;;;19.74;73.44;99817.28;4892194;29;20503;-79
2023/09/30 01:27:44;;;;;;;14.00;3.17;;;;;;;19.88;72.95;99814.38;4890499;29;20125;-80
2023/09/30 01:30:28;;;;;;;18.95;3.42;;;;;;;19.63;73.54;99805.63;4904214;29;20131;-81
2023/09/30 01:33:12;;;;;;;15.85;3.53;;;;;;;19.58;73.77;99810.03;4893305;29;20055;-80
2023/09/30 01:35:56;;;;;;;13.75;4.00;;;;;;;19.41;74.05;99810.75;4893813;29;20043;-78
2023/09/30 01:38:40;;;;;;;13.27;3.50;;;;;;;19.53;74.34;99821.38;4904423;29;20096;-80
2023/09/30 01:41:24;;;;;;;15.73;3.78;;;;;;;19.47;74.37;99801.03;4889120;29;20047;-80
2023/09/30 01:44:09;;;;;;;21.85;4.00;;;;;;;19.42;74.34;99796.41;4892047;29;20043;-80
2023/09/30 01:46:53;;;;;;;11.27;3.15;;;;;;;19.45;74.39;99801.25;4904591;29;20126;-81
2023/09/30 01:49:38;;;;;;;10.82;3.25;;;;;;;19.25;74.29;99788.34;4908573;29;20060;-80
2023/09/30 01:52:22;;;;;;;12.48;3.22;;;;;;;19.19;74.94;99806.03;4891736;29;20473;-80
2023/09/30 01:55:06;;;;;;;16.35;3.70;;;;;;;19.14;75.10;99808.59;4906227;29;20143;-79
2023/09/30 01:57:50;;;;;;;18.55;3.55;;;;;;;19.47;74.18;99812.50;4886645;29;20105;-80
2023/09/30 02:00:35;;;;;;;11.05;3.08;;;;;;;19.34;74.56;99810.88;4902865;29;20119;-78
2023/09/30 02:03:19;;;;;;;17.85;3.13;;;;;;;19.35;74.29;99793.06;4886539;29;20107;-79
2023/09/30 02:06:04;;;;;;;14.02;3.47;;;;;;;19.20;74.69;99791.69;4891761;29;20039;-80
2023/09/30 02:08:48;;;;;;;17.45;3.75;;;;;;;19.23;74.98;99785.09;4888571;29;20121;-80
2023/09/30 02:11:32;;;;;;;17.65;5.65;;;;;;;19.31;74.92;99779.41;4897085;29;20051;-79
2023/09/30 02:14:16;;;;;;;21.65;4.55;;;;;;;19.29;74.68;99788.69;4898026;29;20518;-79
2023/09/30 02:17:01;;;;;;;15.32;3.90;;;;;;;19.21;75.13;99790.66;4891324;29;20046;-78
2023/09/30 02:19:45;;;;;;;13.32;3.10;;;;;;;19.13;74.78;99791.00;4888023;29;20116;-79
2023/09/30 02:22:29;;;;;;;11.88;3.30;;;;;;;19.03;75.01;99790.78;4888753;29;20100;-80
2023/09/30 02:25:13;;;;;;;13.02;3.95;;;;;;;18.90;75.48;99791.78;4890895;29;20096;-80
2023/09/30 02:27:57;;;;;;;13.80;3.80;;;;;;;18.75;75.46;99787.72;4892049;29;20051;-80
2023/09/30 02:30:41;;;;;;;19.85;4.07;;;;;;;18.74;75.37;99785.31;4893321;29;20410;-81
2023/09/30 02:33:25;;;;;;;17.27;3.90;;;;;;;18.79;76.25;99786.25;4883520;29;20454;-80
2023/09/30 02:36:09;;;;;;;12.27;3.28;;;;;;;18.81;76.52;99767.38;4890033;29;20054;-80
2023/09/30 02:38:53;;;;;;;13.98;4.30;;;;;;;19.01;76.09;99787.53;4905358;29;20533;-80
2023/09/30 02:41:37;;;;;;;13.48;4.15;;;;;;;18.97;76.40;99787.97;4890050;29;20176;-81
2023/09/30 02:44:21;;;;;;;16.65;3.67;;;;;;;18.89;76.65;99787.50;4893356;29;20055;-80
2023/09/30 02:47:05;;;;;;;24.92;4.80;;;;;;;18.68;77.20;99781.72;4890572;29;20096;-80
2023/09/30 02:49:49;;;;;;;16.75;3.95;;;;;;;18.83;77.16;99789.25;4906409;29;20042;-80
2023/09/30 02:52:36;;;;;;;23.83;4.10;;;;;;;18.95;77.07;99795.38;4890464;29;20043;-79
2023/09/30 02:55:20;;;;;;;12.25;3.55;;;;;;;19.02;76.25;99784.66;4891846;29;20414;-80
2023/09/30 02:58:04;;;;;;;17.55;4.20;;;;;;;18.87;76.60;99779.78;4888776;29;20458;-79
2023/09/30 03:00:49;;;;;;;15.65;4.03;;;;;;;18.98;76.37;99784.31;4900522;29;20039;-80
2023/09/30 03:03:33;;;;;;;19.27;4.15;;;;;;;18.99;76.61;99811.72;4886652;29;20051;-80
2023/09/30 03:06:18;;;;;;;18.15;4.07;;;;;;;18.82;76.37;99808.91;4892297;29;20043;-80
2023/09/30 03:09:04;;;;;;;14.80;3.72;;;;;;;18.63;76.57;99808.19;4905188;29;20055;-80
2023/09/30 03:11:48;;;;;;;13.00;3.25;;;;;;;18.35;76.55;99791.00;4890039;29;20458;-79
2023/09/30 03:14:32;;;;;;;21.30;4.10;;;;;;;18.21;77.54;99814.31;4891125;29;20096;-79
2023/09/30 03:17:17;;;;;;;12.48;3.58;;;;;;;18.15;76.32;99817.88;4895187;29;20043;-80
2023/09/30 03:20:01;;;;;;;13.68;3.78;;;;;;;17.93;77.36;99808.50;4904484;29;20057;-79
2023/09/30 03:22:46;;;;;;;18.23;4.20;;;;;;;18.03;76.78;99815.19;4901825;29;20117;-80
2023/09/30 03:25:31;;;;;;;20.05;4.15;;;;;;;18.22;77.17;99808.78;4888272;29;20063;-80
2023/09/30 03:28:15;;;;;;;14.25;4.03;;;;;;;18.19;77.02;99813.75;4890057;29;20054;-79
2023/09/30 03:30:59;;;;;;;16.10;4.03;;;;;;;18.28;77.49;99812.41;4905949;29;20047;-80
2023/09/30 03:33:43;;;;;;;21.75;4.47;;;;;;;18.08;78.08;99780.78;4909180;29;20042;-80
2023/09/30 03:36:27;;;;;;;15.98;4.00;;;;;;;18.50;78.00;99810.00;4905882;29;20105;-80
2023/09/30 03:39:14;;;;;;;9.88;3.60;;;;;;;18.70;77.22;99815.03;4907670;29;20506;-81
2023/09/30 03:42:00;;;;;;;15.60;4.28;;;;;;;18.47;77.83;99822.94;4899908;29;20087;-80
2023/09/30 03:44:45;;;;;;;20.92;4.35;;;;;;;18.29;78.25;99814.00;4907675;29;20055;-80
2023/09/30 03:47:31;;;;;;;20.88;4.25;;;;;;;18.49;77.92;99818.22;4910853;29;20043;-80
2023/09/30 03:50:15;;;;;;;16.45;3.65;;;;;;;18.41;77.91;99814.03;4896622;29;20055;-79
2023/09/30 03:53:12;;;;;;;23.63;4.20;;;;;;;18.37;77.93;99812.84;4908177;29;20104;-80
2023/09/30 03:55:57;;;;;;;14.35;3.13;;;;;;;18.24;77.60;99803.22;4905883;29;20051;-80
2023/09/30 03:58:42;;;;;;;16.58;3.92;;;;;;;18.06;77.67;99798.78;4890028;29;20052;-80
2023/09/30 04:01:27;;;;;;;20.40;4.93;;;;;;;18.16;77.64;99793.72;4904364;29;20039;-80
2023/09/30 04:04:11;;;;;;;13.23;3.58;;;;;;;18.01;77.89;99803.94;4896229;29;20043;-80
2023/09/30 04:06:55;;;;;;;15.55;3.70;;;;;;;18.05;77.90;99808.59;4897652;29;20464;-81
2023/09/30 04:09:39;;;;;;;21.00;3.88;;;;;;;17.89;78.39;99820.63;4909809;29;20042;-79
2023/09/30 04:12:23;;;;;;;20.23;4.60;;;;;;;18.05;78.39;99837.81;4909896;29;20570;-80
2023/09/30 04:15:11;;;;;;;14.25;3.92;;;;;;;17.99;78.62;99836.03;4899375;29;20200;-79
2023/09/30 04:17:55;;;;;;;23.88;5.03;;;;;;;18.07;78.27;99834.94;4890952;29;20083;-81
2023/09/30 04:20:39;;;;;;;20.38;4.43;;;;;;;18.06;78.07;99815.53;4887244;29;20051;-80
2023/09/30 04:23:23;;;;;;;19.88;3.92;;;;;;;18.03;78.73;99829.25;4905960;29;20051;-80
2023/09/30 04:26:09;;;;;;;16.10;4.18;;;;;;;17.88;78.95;99807.56;4906666;29;20105;-79
2023/09/30 04:28:53;;;;;;;18.52;4.13;;;;;;;17.97;79.34;99828.28;4909845;29;20120;-80
2023/09/30 04:31:39;;;;;;;24.00;4.72;;;;;;;17.97;79.71;99816.84;4894914;29;20044;-82
2023/09/30 04:34:23;;;;;;;23.52;5.50;;;;;;;18.03;79.78;99805.34;4905549;29;20454;-81
2023/09/30 04:37:09;;;;;;;16.58;4.30;;;;;;;18.16;79.67;99808.88;4902174;29;20454;-80
2023/09/30 04:39:53;;;;;;;21.60;4.85;;;;;;;18.16;79.52;99801.69;4889872;29;20043;-80
2023/09/30 04:42:37;;;;;;;17.15;3.90;;;;;;;18.15;79.34;99808.06;4892078;29;20465;-80
2023/09/30 04:45:24;;;;;;;15.88;4.07;;;;;;;18.11;79.22;99805.06;4903945;29;20104;-81
2023/09/30 04:48:08;;;;;;;16.10;4.20;;;;;;;18.07;79.60;99817.16;4888274;29;20043;-79
2023/09/30 04:50:52;;;;;;;20.23;3.97;;;;;;;18.11;78.94;99828.97;4904456;29;20088;-80
2023/09/30 04:53:36;;;;;;;19.02;4.63;;;;;;;17.99;79.29;99825.41;4893371;29;20505;-79
2023/09/30 04:56:20;;;;;;;11.20;3.55;;;;;;;17.55;79.31;99773.25;4902285;29;20051;-79
2023/09/30 04:59:04;;;;;;;12.23;4.05;;;;;;;17.87;79.69;99811.25;4890429;29;20047;-81
2023/09/30 05:01:48;;;;;;;21.95;4.68;;;;;;;17.90;80.16;99795.69;4904678;29;20105;-80
2023/09/30 05:04:36;;;;;;;18.52;4.05;;;;;;;17.97;79.58;99791.09;4891955;29;20067;-80
2023/09/30 05:07:23;;;;;;;23.25;5.38;;;;;;;18.15;79.47;99807.25;4898651;29;20063;-80
2023/09/30 05:10:13;;;;;;;17.42;4.38;;;;;;;18.09;79.62;99815.09;4889388;29;20128;-81
2023/09/30 05:12:57;;;;;;;15.57;4.18;;;;;;;18.26;79.86;99809.94;4892831;29;20108;-80
2023/09/30 05:15:41;;;;;;;16.23;4.20;;;;;;;18.40;79.53;99813.22;4904148;29;20070;-82
2023/09/30 05:18:25;;;;;;;19.90;5.72;;;;;;;18.48;79.55;99812.09;4895442;29;20151;-80
2023/09/30 05:21:10;;;;;;;14.68;4.47;;;;;;;18.60;79.11;99819.28;4900680;29;20450;-80
2023/09/30 05:23:54;;;;;;;17.48;4.85;;;;;;;18.38;79.57;99817.97;4908227;29;20520;-81
2023/09/30 05:26:38;;;;;;;12.32;4.57;;;;;;;18.40;79.33;99817.75;4906520;29;20040;-80
2023/09/30 05:29:22;;;;;;;13.48;4.25;;;;;;;18.32;79.33;99832.16;4895859;29;20512;-80
2023/09/30 05:32:06;;;;;;;16.15;4.50;;;;;;;18.32;79.06;99836.66;4904655;29;20398;-80
2023/09/30 05:34:53;;;;;;;14.40;4.38;;;;;;;18.08;79.22;99840.06;4901898;29;20051;-80
2023/09/30 05:37:37;;;;;;;17.48;5.35;;;;;;;17.83;80.42;99842.78;4892243;29;20102;-81
2023/09/30 05:40:30;;;;;;;20.48;4.50;;;;;;;18.01;79.61;99849.91;4893282;29;20055;-80
2023/09/30 05:43:14;;;;;;;20.52;4.80;;;;;;;17.69;80.36;99829.66;4892070;29;20101;-79
2023/09/30 05:45:58;;;;;;;15.27;4.03;;;;;;;17.55;80.05;99810.41;4891912;29;20071;-79
2023/09/30 05:48:42;;;;;;;12.18;4.30;;;;;;;17.28;80.94;99821.28;4891677;29;20562;-79
2023/09/30 05:51:26;;;;;;;18.75;4.55;;;;;;;17.25;81.65;99812.97;4890522;29;20513;-81
2023/09/30 05:54:11;;;;;;;11.35;4.03;;;;;;;17.21;80.58;99814.44;4904280;29;20163;-79
2023/09/30 05:56:56;;;;;;;15.50;4.00;;;;;;;17.17;80.63;99799.97;4905824;29;20170;-79
2023/09/30 05:59:40;;;;;;;15.10;4.63;;;;;;;17.21;79.58;99804.63;4902378;29;20043;-80
2023/09/30 06:02:24;;;;;;;11.13;3.72;;;;;;;17.17;79.60;99816.72;4891898;29;20039;-81
2023/09/30 06:05:09;;;;;;;11.45;3.72;;;;;;;16.98;80.14;99811.38;4902576;29;20074;-80
2023/09/30 06:07:54;;;;;;;15.55;3.75;;;;;;;17.00;80.17;99821.78;4899523;29;20099;-78
2023/09/30 06:10:42;;;;;;;18.60;4.45;;;;;;;16.93;80.17;99810.38;4899986;29;20059;-78
2023/09/30 06:13:28;;;;;;;7.03;3.72;;;;;;;17.02;79.78;99808.28;4904261;29;20103;-81
2023/09/30 06:16:12;;;;;;;18.13;4.00;;;;;;;16.99;80.19;99807.69;4889701;29;20081;-80
2023/09/30 06:18:56;;;;;;;17.38;4.55;;;;;;;17.05;80.34;99815.81;4899008;29;20066;-80
2023/09/30 06:21:40;;;;;;;13.98;3.70;;;;;;;17.16;80.40;99812.44;4905685;29;20046;-81
2023/09/30 06:24:24;;;;;;;12.95;4.13;;;;;;;17.32;79.67;99831.50;4892621;29;20103;-81
2023/09/30 06:27:13;;;;;;;9.68;3.90;;;;;;;17.21;79.89;99820.56;4901040;29;20051;-80
2023/09/30 06:29:57;;;;;;;13.10;4.38;;;;;;;17.21;80.15;99820.56;4886645;29;20095;-80
2023/09/30 06:32:42;;;;;;;16.35;4.65;;;;;;;17.31;80.85;99835.16;4901598;29;20155;-80
2023/09/30 06:35:27;;;;;;;8.88;3.67;;;;;;;17.50;80.50;99842.13;4902017;29;20047;-81
2023/09/30 06:38:10;;;;;;;12.90;4.78;;;;;;;17.59;80.48;99844.47;4901847;29;20111;-78
2023/09/30 06:40:56;;;;;;;9.88;3.67;;;;;;;17.68;80.41;99854.56;4881780;29;20110;-80
2023/09/30 06:43:40;;;;;;;8.20;3.72;;;;;;;17.78;80.99;99856.72;4905642;29;20046;-78
2023/09/30 06:46:24;;;;;;;12.25;4.07;;;;;;;17.90;80.75;99874.56;4888637;29;20120;-79
2023/09/30 06:49:08;;;;;;;10.18;4.28;;;;;;;17.99;81.13;99873.22;4883398;29;20124;-79
2023/09/30 06:51:53;;;;;;;16.85;5.15;;;;;;;18.24;81.01;99891.75;4887369;29;20402;-80
2023/09/30 06:54:37;;;;;;;15.65;4.82;;;;;;;18.48;80.74;99894.50;4901236;29;20043;-80
2023/09/30 06:57:21;;;;;;;19.08;5.18;;;;;;;18.59;80.74;99884.13;4903933;29;20116;-78
2023/09/30 07:00:08;;;;;;;16.80;4.93;;;;;;;18.72;80.66;99886.59;4885021;29;20068;-79
2023/09/30 07:02:52;;;;;;;16.20;4.90;;;;;;;18.83;80.99;99892.97;4892021;29;20050;-79
2023/09/30 07:05:37;;;;;;;9.90;4.25;;;;;;;18.81;81.06;99876.44;4892040;29;20047;-80
2023/09/30 07:08:21;;;;;;;18.55;5.70;;;;;;;18.98;81.03;99880.06;4901534;29;20051;-80
2023/09/30 07:11:05;;;;;;;17.98;5.35;;;;;;;18.94;80.56;99851.47;4880345;29;20475;-79
2023/09/30 07:13:49;;;;;;;13.73;5.40;;;;;;;19.15;81.12;99881.25;4886631;29;20534;-79
2023/09/30 07:16:34;;;;;;;12.77;5.03;;;;;;;19.29;81.12;99879.97;4884445;29;20051;-79
2023/09/30 07:19:18;;;;;;;14.40;4.75;;;;;;;19.50;80.76;99875.94;4881248;29;20052;-79
2023/09/30 07:22:02;;;;;;;13.95;4.78;;;;;;;19.48;81.25;99874.53;4886859;29;20039;-79
2023/09/30 07:24:46;;;;;;;10.93;4.60;;;;;;;19.66;81.13;99877.06;4888782;29;20118;-79
2023/09/30 07:27:30;;;;;;;15.18;5.20;;;;;;;19.76;80.71;99881.00;4882674;29;20047;-79
2023/09/30 07:30:15;;;;;;;15.48;4.75;;;;;;;19.81;80.69;99879.22;4894809;29;20049;-82
2023/09/30 07:32:59;;;;;;;13.00;4.80;;;;;;;19.89;80.70;99883.38;4884283;29;20043;-82
2023/09/30 07:35:43;;;;;;;12.77;4.20;;;;;;;20.03;80.71;99886.63;4882390;29;20172;-83
2023/09/30 07:38:26;;;;;;;15.00;4.85;;;;;;;19.77;80.51;99870.09;4878813;29;20119;-81
2023/09/30 07:41:10;;;;;;;15.88;5.43;;;;;;;19.83;79.56;99879.78;4881817;29;20075;-78
2023/09/30 07:43:54;;;;;;;12.85;4.50;;;;;;;19.72;80.90;99879.81;4882413;29;20062;-80
2023/09/30 07:46:38;;;;;;;12.32;4.53;;;;;;;19.82;80.65;99888.84;4881293;29;20051;-80
2023/09/30 07:49:23;;;;;;;12.43;4.60;;;;;;;19.83;79.96;99901.09;4887738;29;20579;-81
2023/09/30 07:52:08;;;;;;;17.70;4.65;;;;;;;20.16;80.51;99892.72;4887566;29;20454;-82
2023/09/30 07:54:52;;;;;;;10.93;4.70;;;;;;;20.16;80.19;99898.06;4890081;29;20047;-84
2023/09/30 07:57:40;;;;;;;15.40;5.07;;;;;;;20.40;80.15;99902.25;4891827;29;20462;-83
2023/09/30 08:00:25;;;;;;;10.18;4.75;;;;;;;20.43;79.88;99894.81;4887415;29;20058;-83
2023/09/30 08:03:09;;;;;;;15.93;4.97;;;;;;;20.56;80.17;99902.53;4889588;29;20044;-82
2023/09/30 08:05:53;;;;;;;15.93;4.85;;;;;;;20.74;79.90;99906.03;4891610;29;20043;-83
2023/09/30 08:08:37;;;;;;;10.68;4.80;;;;;;;20.69;79.41;99891.56;4888828;29;20058;-83
2023/09/30 08:11:21;;;;;;;16.20;4.85;;;;;;;20.88;79.11;99883.38;4900625;29;20459;-83
2023/09/30 08:14:09;;;;;;;17.83;5.60;;;;;;;20.90;79.23;99875.94;4908086;29;20043;-83
2023/09/30 08:16:56;;;;;;;13.30;5.50;;;;;;;20.93;79.35;99874.59;4905479;29;20047;-85
2023/09/30 08:19:40;;;;;;;14.02;5.18;;;;;;;21.08;79.01;99871.41;4890413;29;20468;-83
2023/09/30 08:22:27;;;;;;;15.30;5.40;;;;;;;21.21;78.09;99871.03;4908993;29;20046;-81
2023/09/30 08:25:11;;;;;;;12.10;4.72;;;;;;;21.39;78.33;99879.84;4891937;29;20043;-84
2023/09/30 08:27:55;;;;;;;19.08;4.47;;;;;;;21.57;77.38;99886.78;4896716;29;20051;-84
2023/09/30 08:30:39;;;;;;;11.60;4.38;;;;;;;21.72;77.23;99880.03;4909342;29;20554;-84
2023/09/30 08:33:24;;;;;;;12.48;4.30;;;;;;;21.99;77.01;99880.09;4887739;29;20055;-83
2023/09/30 08:36:09;;;;;;;12.23;4.63;;;;;;;22.10;75.83;99881.00;4915834;29;20046;-82
2023/09/30 08:38:53;;;;;;;18.13;4.57;;;;;;;22.30;74.94;99869.72;4907365;29;20047;-82
2023/09/30 08:41:38;;;;;;;13.35;4.35;;;;;;;22.35;75.20;99867.09;4892963;29;20139;-82
2023/09/30 08:44:22;;;;;;;8.63;3.80;;;;;;;22.40;74.71;99864.50;4903317;29;20187;-84
2023/09/30 08:47:09;;;;;;;13.43;4.03;;;;;;;22.40;73.79;99869.84;4888428;29;20055;-83
2023/09/30 08:49:57;;;;;;;20.05;4.97;;;;;;;22.45;73.60;99870.94;4895232;29;20051;-85
2023/09/30 08:52:43;;;;;;;8.18;3.95;;;;;;;22.43;73.14;99867.72;4894975;29;20123;-84
2023/09/30 08:55:28;;;;;;;11.32;3.97;;;;;;;22.64;71.91;99874.91;4893103;29;20102;-85
2023/09/30 08:58:12;;;;;;;12.07;3.58;;;;;;;22.66;72.06;99871.94;4909953;29;20123;-84
2023/09/30 09:00:56;;;;;;;12.98;4.43;;;;;;;22.75;71.96;99865.09;4895390;29;20405;-85
2023/09/30 09:03:40;;;;;;;12.20;3.95;;;;;;;22.71;71.91;99858.63;4908383;29;20055;-83
2023/09/30 09:06:26;;;;;;;10.43;4.13;;;;;;;22.86;71.81;99857.13;4893377;29;20108;-83
2023/09/30 09:09:22;;;;;;;15.43;4.30;;;;;;;22.85;71.30;99859.00;4894122;29;20051;-84
2023/09/30 09:12:18;;;;;;;11.70;3.58;;;;;;;22.86;71.53;99839.19;4905179;29;20438;-84
2023/09/30 09:15:05;;;;;;;15.90;3.97;;;;;;;23.00;71.18;99833.41;4893009;29;20120;-85
2023/09/30 09:17:50;;;;;;;11.80;3.20;;;;;;;23.11;70.62;99851.16;4885999;29;20056;-84
2023/09/30 09:20:34;;;;;;;10.32;3.83;;;;;;;23.37;70.85;99854.00;4888783;29;20055;-83
2023/09/30 09:23:18;;;;;;;11.70;3.28;;;;;;;23.54;70.62;99869.91;4894805;29;20051;-87
2023/09/30 09:26:04;;;;;;;10.63;3.53;;;;;;;23.60;69.72;99871.53;4899928;29;20151;-84
2023/09/30 09:28:48;;;;;;;7.10;2.95;;;;;;;23.94;69.78;99857.72;4897542;29;20099;-86
2023/09/30 09:31:36;;;;;;;9.27;2.80;;;;;;;24.18;68.82;99845.75;4905510;29;20641;-84
2023/09/30 09:34:20;;;;;;;11.25;2.83;;;;;;;24.45;68.84;99844.72;4890774;29;20046;-85
2023/09/30 09:37:19;;;;;;;10.38;2.85;;;;;;;24.90;68.42;99883.38;4905577;29;20050;-85
2023/09/30 09:40:04;;;;;;;8.98;2.65;;;;;;;25.08;67.57;99884.72;4904710;29;20173;-84
2023/09/30 09:42:50;;;;;;;9.43;3.00;;;;;;;25.06;66.75;99886.06;4893542;29;20367;-81
2023/09/30 09:45:43;;;;;;;13.50;2.75;;;;;;;25.28;65.76;99880.41;4890441;29;20179;-81
2023/09/30 09:48:28;;;;;;;7.87;2.90;;;;;;;25.42;65.91;99883.31;4906227;29;20497;-82
2023/09/30 09:51:13;;;;;;;5.53;2.40;;;;;;;25.55;65.61;99891.88;4903337;29;20157;-82
2023/09/30 09:54:03;;;;;;;9.20;2.60;;;;;;;25.63;64.67;99883.28;4889395;29;20047;-81
2023/09/30 09:56:49;;;;;;;10.25;3.10;;;;;;;26.04;63.85;99895.72;4904150;29;20059;-81
2023/09/30 09:59:33;;;;;;;7.38;2.50;;;;;;;26.12;63.35;99892.47;4895164;29;20040;-83
2023/09/30 10:02:19;;;;;;;7.85;2.83;;;;;;;26.34;63.92;99884.03;4906682;29;20062;-80
2023/09/30 10:05:03;;;;;;;11.10;2.88;;;;;;;26.46;63.21;99883.66;4907803;29;20107;-79
2023/09/30 10:08:00;;;;;;;9.45;2.53;;;;;;;26.63;62.95;99875.19;4903589;29;20048;-80
2023/09/30 10:10:45;;;;;;;10.77;2.88;;;;;;;26.78;61.89;99871.56;4886498;29;20179;-79
2023/09/30 10:14:03;;;;;;;11.73;2.83;;;;;;;26.52;62.90;99865.56;4904038;29;20083;-80
2023/09/30 10:16:47;;;;;;;12.18;4.15;;;;;;;26.31;62.48;99857.66;4901478;29;20189;-81
2023/09/30 10:19:32;;;;;;;8.88;3.25;;;;;;;26.55;62.41;99858.84;4904477;29;20043;-80
2023/09/30 10:22:19;;;;;;;8.02;2.60;;;;;;;26.38;62.77;99871.59;4889860;29;20100;-80
2023/09/30 10:25:36;;;;;;;8.48;2.88;;;;;;;26.30;62.87;99863.31;4905856;29;20071;-80
2023/09/30 10:28:50;;;;;;;9.13;3.05;;;;;;;25.81;62.86;99858.47;4908496;29;20047;-82
2023/09/30 10:31:49;;;;;;;10.57;3.63;;;;;;;25.97;62.69;99858.38;4905727;29;20059;-82
2023/09/30 10:34:34;;;;;;;7.78;2.85;;;;;;;25.92;63.27;99853.00;4888384;29;20112;-82
2023/09/30 10:37:24;;;;;;;10.63;3.55;;;;;;;26.07;62.85;99855.63;4905010;29;20574;-82
2023/09/30 10:40:09;;;;;;;9.10;3.28;;;;;;;25.90;62.35;99834.47;4905262;29;20043;-81
2023/09/30 10:42:56;;;;;;;13.02;3.63;;;;;;;26.08;62.59;99841.09;4902168;29;20036;-81
2023/09/30 10:45:43;;;;;;;5.15;3.03;;;;;;;25.72;63.16;99830.53;4888399;29;20250;-81
2023/09/30 10:48:27;;;;;;;8.02;3.58;;;;;;;25.62;63.48;99833.28;4901797;29;20128;-82
2023/09/30 10:51:15;;;;;;;8.05;2.83;;;;;;;25.62;63.14;99822.53;4903745;29;20110;-81
2023/09/30 10:54:00;;;;;;;7.22;2.97;;;;;;;25.77;62.75;99822.44;4903897;29;20123;-82
2023/09/30 10:56:45;;;;;;;7.40;3.55;;;;;;;25.53;63.51;99823.06;4903825;29;20068;-80
2023/09/30 10:59:34;;;;;;;9.57;3.72;;;;;;;25.35;63.31;99839.78;4890962;29;20051;-81
2023/09/30 11:02:20;;;;;;;11.57;3.80;;;;;;;25.04;64.31;99831.81;4901567;29;20592;-82
2023/09/30 11:05:13;;;;;;;13.55;4.57;;;;;;;25.61;63.16;99823.59;4896995;29;20100;-83
2023/09/30 11:08:01;;;;;;;11.55;4.82;;;;;;;25.32;63.74;99832.28;4906132;29;20047;-83
2023/09/30 11:10:50;;;;;;;11.40;4.20;;;;;;;24.93;64.37;99823.75;4900310;29;20051;-82
2023/09/30 11:13:36;;;;;;;8.95;4.25;;;;;;;24.94;63.92;99824.59;4905697;29;20111;-82
2023/09/30 11:16:21;;;;;;;8.00;4.25;;;;;;;24.99;64.70;99818.41;4904409;29;20071;-82
2023/09/30 11:19:08;;;;;;;10.18;4.45;;;;;;;24.78;64.85;99810.38;4892408;29;20047;-82
2023/09/30 11:21:54;;;;;;;14.32;4.20;;;;;;;25.34;64.87;99805.94;4891757;29;20035;-82
2023/09/30 11:24:39;;;;;;;9.98;3.80;;;;;;;25.57;63.97;99814.50;4902146;29;20051;-81
2023/09/30 11:27:26;;;;;;;15.15;3.70;;;;;;;25.61;63.14;99813.63;4888185;29;20048;-81
2023/09/30 11:30:12;;;;;;;9.00;3.33;;;;;;;25.56;63.56;99807.50;4903005;29;20043;-82
2023/09/30 11:33:09;;;;;;;11.00;3.38;;;;;;;25.62;64.11;99801.03;4889875;29;20075;-81
2023/09/30 11:36:02;;;;;;;11.00;3.63;;;;;;;26.01;63.37;99781.44;4889720;29;20100;-83
2023/09/30 11:38:47;;;;;;;9.80;3.10;;;;;;;25.95;63.37;99782.56;4906128;29;20051;-83
2023/09/30 11:41:41;;;;;;;11.77;3.22;;;;;;;26.13;63.55;99783.75;4902104;29;20046;-82
2023/09/30 11:44:30;;;;;;;9.10;2.90;;;;;;;26.54;62.33;99777.28;4890260;29;20043;-82
2023/09/30 11:47:15;;;;;;;11.15;3.40;;;;;;;26.64;62.19;99781.75;4906596;29;21142;-83
2023/09/30 11:49:59;;;;;;;6.07;2.40;;;;;;;27.10;60.52;99772.41;4891869;29;20055;-82
2023/09/30 11:52:46;;;;;;;9.48;2.85;;;;;;;26.81;61.31;99773.25;4907883;29;20111;-84
2023/09/30 11:55:31;;;;;;;9.90;3.08;;;;;;;26.16;62.39;99777.03;4893274;29;20047;-82
2023/09/30 11:58:18;;;;;;;8.32;2.85;;;;;;;26.38;61.74;99785.47;4910965;29;20598;-82
2023/09/30 12:01:02;;;;;;;8.43;3.15;;;;;;;25.98;62.43;99770.41;4909600;29;20040;-83
2023/09/30 12:03:47;;;;;;;15.70;3.95;;;;;;;26.25;62.26;99788.03;4898539;29;20034;-84
2023/09/30 12:06:31;;;;;;;6.82;3.10;;;;;;;26.32;62.08;99777.72;4907536;29;20168;-83
2023/09/30 12:09:16;;;;;;;8.98;2.97;;;;;;;26.23;62.35;99781.00;4892019;29;20044;-81
2023/09/30 12:12:02;;;;;;;13.35;4.22;;;;;;;25.69;63.25;99761.19;4908936;29;20048;-83
2023/09/30 12:14:46;;;;;;;12.00;4.22;;;;;;;25.61;64.13;99777.91;4896331;29;20458;-81
2023/09/30 12:17:30;;;;;;;9.50;3.47;;;;;;;25.42;64.48;99775.81;4906200;29;20054;-81
2023/09/30 12:20:15;;;;;;;9.13;3.60;;;;;;;25.32;64.41;99776.66;4913907;29;20131;-80
2023/09/30 12:23:00;;;;;;;11.27;3.67;;;;;;;25.28;65.25;99777.47;4896672;29;20123;-81
2023/09/30 12:25:54;;;;;;;8.40;3.75;;;;;;;25.08;66.25;99773.78;4911014;29;20109;-80
2023/09/30 12:28:40;;;;;;;11.60;4.07;;;;;;;25.03;67.01;99753.09;4894774;29;20529;-81
2023/09/30 12:31:24;;;;;;;10.25;4.15;;;;;;;25.28;66.75;99764.88;4889919;29;20100;-81
2023/09/30 12:34:09;;;;;;;14.00;4.53;;;;;;;25.39;67.29;99765.63;4908484;29;20138;-81
2023/09/30 12:36:54;;;;;;;14.70;3.63;;;;;;;25.53;67.32;99761.25;4903148;29;20450;-82
2023/09/30 12:39:38;;;;;;;10.43;3.80;;;;;;;25.90;66.81;99758.34;4892694;29;20035;-81
2023/09/30 12:42:24;;;;;;;11.45;4.13;;;;;;;25.96;66.52;99746.50;4910221;29;20059;-81
2023/09/30 12:45:09;;;;;;;10.45;3.85;;;;;;;26.12;65.90;99752.56;4906543;29;20123;-83
2023/09/30 12:47:56;;;;;;;12.65;4.03;;;;;;;26.10;65.65;99749.34;4909475;29;20092;-80
2023/09/30 12:50:44;;;;;;;14.52;4.43;;;;;;;25.95;66.37;99747.59;4893955;29;20585;-80
2023/09/30 12:53:28;;;;;;;11.57;4.03;;;;;;;25.81;65.85;99750.09;4908618;29;20075;-79